sensor_id;sensor_type;location;lat;lon;timestamp;pressure;altitude;pressure_sealevel;temperature
11849;BMP180;5983;49.966;8.052;2024-01-07T00:00:44;100129.00;;;5.40
11849;BMP180;5983;49.966;8.052;2024-01-07T00:03:10;100142.00;;;5.40
11849;BMP180;5983;49.966;8.052;2024-01-07T00:05:37;100138.00;;;5.40
11849;BMP180;5983;49.966;8.052;2024-01-07T00:08:04;100131.00;;;5.40
11849;BMP180;5983;49.966;8.052;2024-01-07T00:10:31;100136.00;;;5.40
11849;BMP180;5983;49.966;8.052;2024-01-07T00:12:58;100137.00;;;5.40
11849;BMP180;5983;49.966;8.052;2024-01-07T00:15:27;100147.00;;;5.40
11849;BMP180;5983;49.966;8.052;2024-01-07T00:17:54;100138.00;;;5.40
11849;BMP180;5983;49.966;8.052;2024-01-07T00:20:21;100143.00;;;5.40
11849;BMP180;5983;49.966;8.052;2024-01-07T00:22:49;100147.00;;;5.40
11849;BMP180;5983;49.966;8.052;2024-01-07T00:25:15;100144.00;;;5.40
11849;BMP180;5983;49.966;8.052;2024-01-07T00:27:43;100156.00;;;5.40
11849;BMP180;5983;49.966;8.052;2024-01-07T00:30:11;100151.00;;;5.40
11849;BMP180;5983;49.966;8.052;2024-01-07T00:32:39;100152.00;;;5.40
11849;BMP180;5983;49.966;8.052;2024-01-07T00:35:06;100153.00;;;5.40
11849;BMP180;5983;49.966;8.052;2024-01-07T00:37:33;100147.00;;;5.40
11849;BMP180;5983;49.966;8.052;2024-01-07T00:40:00;100149.00;;;5.40
11849;BMP180;5983;49.966;8.052;2024-01-07T00:42:27;100155.00;;;5.50
11849;BMP180;5983;49.966;8.052;2024-01-07T00:44:53;100165.00;;;5.40
11849;BMP180;5983;49.966;8.052;2024-01-07T00:47:20;100157.00;;;5.40
11849;BMP180;5983;49.966;8.052;2024-01-07T00:49:48;100164.00;;;5.40
11849;BMP180;5983;49.966;8.052;2024-01-07T00:52:15;100167.00;;;5.40
11849;BMP180;5983;49.966;8.052;2024-01-07T00:54:42;100171.00;;;5.40
11849;BMP180;5983;49.966;8.052;2024-01-07T00:57:10;100170.00;;;5.40
11849;BMP180;5983;49.966;8.052;2024-01-07T00:59:36;100174.00;;;5.40
11849;BMP180;5983;49.966;8.052;2024-01-07T01:02:03;100171.00;;;5.40
11849;BMP180;5983;49.966;8.052;2024-01-07T01:04:30;100180.00;;;5.40
11849;BMP180;5983;49.966;8.052;2024-01-07T01:06:58;100174.00;;;5.40
11849;BMP180;5983;49.966;8.052;2024-01-07T01:09:27;100181.00;;;5.40
11849;BMP180;5983;49.966;8.052;2024-01-07T01:11:54;100192.00;;;5.40
11849;BMP180;5983;49.966;8.052;2024-01-07T01:14:21;100188.00;;;5.40
11849;BMP180;5983;49.966;8.052;2024-01-07T01:16:47;100197.00;;;5.30
11849;BMP180;5983;49.966;8.052;2024-01-07T01:19:14;100195.00;;;5.40
11849;BMP180;5983;49.966;8.052;2024-01-07T01:21:41;100192.00;;;5.40
11849;BMP180;5983;49.966;8.052;2024-01-07T01:24:09;100193.00;;;5.40
11849;BMP180;5983;49.966;8.052;2024-01-07T01:26:35;100188.00;;;5.40
11849;BMP180;5983;49.966;8.052;2024-01-07T01:29:04;100199.00;;;5.40
11849;BMP180;5983;49.966;8.052;2024-01-07T01:31:31;100206.00;;;5.40
11849;BMP180;5983;49.966;8.052;2024-01-07T01:33:58;100203.00;;;5.40
11849;BMP180;5983;49.966;8.052;2024-01-07T01:36:25;100211.00;;;5.40
11849;BMP180;5983;49.966;8.052;2024-01-07T01:38:51;100212.00;;;5.40
11849;BMP180;5983;49.966;8.052;2024-01-07T01:41:19;100214.00;;;5.40
11849;BMP180;5983;49.966;8.052;2024-01-07T01:43:46;100219.00;;;5.40
11849;BMP180;5983;49.966;8.052;2024-01-07T01:46:13;100211.00;;;5.40
11849;BMP180;5983;49.966;8.052;2024-01-07T01:48:40;100213.00;;;5.40
11849;BMP180;5983;49.966;8.052;2024-01-07T01:51:08;100202.00;;;5.40
11849;BMP180;5983;49.966;8.052;2024-01-07T01:53:35;100200.00;;;5.40
11849;BMP180;5983;49.966;8.052;2024-01-07T01:56:01;100212.00;;;5.40
11849;BMP180;5983;49.966;8.052;2024-01-07T01:58:31;100208.00;;;5.40
11849;BMP180;5983;49.966;8.052;2024-01-07T02:00:59;100199.00;;;5.40
11849;BMP180;5983;49.966;8.052;2024-01-07T02:03:25;100200.00;;;5.40
11849;BMP180;5983;49.966;8.052;2024-01-07T02:05:53;100194.00;;;5.40
11849;BMP180;5983;49.966;8.052;2024-01-07T02:08:20;100206.00;;;5.40
11849;BMP180;5983;49.966;8.052;2024-01-07T02:10:47;100195.00;;;5.40
11849;BMP180;5983;49.966;8.052;2024-01-07T02:13:14;100206.00;;;5.40
11849;BMP180;5983;49.966;8.052;2024-01-07T02:15:42;100204.00;;;5.40
11849;BMP180;5983;49.966;8.052;2024-01-07T02:18:09;100215.00;;;5.40
11849;BMP180;5983;49.966;8.052;2024-01-07T02:20:36;100200.00;;;5.40
11849;BMP180;5983;49.966;8.052;2024-01-07T02:23:03;100208.00;;;5.40
11849;BMP180;5983;49.966;8.052;2024-01-07T02:25:34;100216.00;;;5.40
11849;BMP180;5983;49.966;8.052;2024-01-07T02:28:01;100221.00;;;5.30
11849;BMP180;5983;49.966;8.052;2024-01-07T02:30:28;100215.00;;;5.30
11849;BMP180;5983;49.966;8.052;2024-01-07T02:32:54;100216.00;;;5.30
11849;BMP180;5983;49.966;8.052;2024-01-07T02:35:21;100209.00;;;5.30
11849;BMP180;5983;49.966;8.052;2024-01-07T02:37:48;100213.00;;;5.30
11849;BMP180;5983;49.966;8.052;2024-01-07T02:40:14;100217.00;;;5.30
11849;BMP180;5983;49.966;8.052;2024-01-07T02:42:42;100220.00;;;5.30
11849;BMP180;5983;49.966;8.052;2024-01-07T02:45:09;100211.00;;;5.30
11849;BMP180;5983;49.966;8.052;2024-01-07T02:47:36;100223.00;;;5.30
11849;BMP180;5983;49.966;8.052;2024-01-07T02:50:03;100219.00;;;5.30
11849;BMP180;5983;49.966;8.052;2024-01-07T02:52:30;100221.00;;;5.30
11849;BMP180;5983;49.966;8.052;2024-01-07T02:54:56;100219.00;;;5.40
11849;BMP180;5983;49.966;8.052;2024-01-07T02:57:23;100224.00;;;5.30
11849;BMP180;5983;49.966;8.052;2024-01-07T02:59:51;100217.00;;;5.40
11849;BMP180;5983;49.966;8.052;2024-01-07T03:02:18;100220.00;;;5.40
11849;BMP180;5983;49.966;8.052;2024-01-07T03:04:44;100226.00;;;5.40
11849;BMP180;5983;49.966;8.052;2024-01-07T03:07:11;100220.00;;;5.40
11849;BMP180;5983;49.966;8.052;2024-01-07T03:09:38;100234.00;;;5.40
11849;BMP180;5983;49.966;8.052;2024-01-07T03:12:05;100220.00;;;5.40
11849;BMP180;5983;49.966;8.052;2024-01-07T03:14:31;100229.00;;;5.40
11849;BMP180;5983;49.966;8.052;2024-01-07T03:16:59;100231.00;;;5.40
11849;BMP180;5983;49.966;8.052;2024-01-07T03:19:26;100233.00;;;5.40
11849;BMP180;5983;49.966;8.052;2024-01-07T03:21:53;100224.00;;;5.50
11849;BMP180;5983;49.966;8.052;2024-01-07T03:24:19;100232.00;;;5.50
11849;BMP180;5983;49.966;8.052;2024-01-07T03:26:46;100223.00;;;5.50
11849;BMP180;5983;49.966;8.052;2024-01-07T03:29:13;100229.00;;;5.50
11849;BMP180;5983;49.966;8.052;2024-01-07T03:31:40;100229.00;;;5.50
11849;BMP180;5983;49.966;8.052;2024-01-07T03:34:08;100235.00;;;5.50
11849;BMP180;5983;49.966;8.052;2024-01-07T03:36:34;100238.00;;;5.50
11849;BMP180;5983;49.966;8.052;2024-01-07T03:39:01;100236.00;;;5.40
11849;BMP180;5983;49.966;8.052;2024-01-07T03:41:28;100236.00;;;5.40
11849;BMP180;5983;49.966;8.052;2024-01-07T03:43:54;100233.00;;;5.50
11849;BMP180;5983;49.966;8.052;2024-01-07T03:46:22;100234.00;;;5.50
11849;BMP180;5983;49.966;8.052;2024-01-07T03:48:48;100227.00;;;5.50
11849;BMP180;5983;49.966;8.052;2024-01-07T03:51:16;100227.00;;;5.50
11849;BMP180;5983;49.966;8.052;2024-01-07T03:53:43;100234.00;;;5.50
11849;BMP180;5983;49.966;8.052;2024-01-07T03:56:10;100239.00;;;5.50
11849;BMP180;5983;49.966;8.052;2024-01-07T03:58:37;100238.00;;;5.50
11849;BMP180;5983;49.966;8.052;2024-01-07T04:01:03;100235.00;;;5.50
11849;BMP180;5983;49.966;8.052;2024-01-07T04:03:30;100233.00;;;5.50
11849;BMP180;5983;49.966;8.052;2024-01-07T04:05:57;100232.00;;;5.50
11849;BMP180;5983;49.966;8.052;2024-01-07T04:08:25;100237.00;;;5.50
11849;BMP180;5983;49.966;8.052;2024-01-07T04:10:51;100242.00;;;5.50
11849;BMP180;5983;49.966;8.052;2024-01-07T04:13:18;100240.00;;;5.50
11849;BMP180;5983;49.966;8.052;2024-01-07T04:15:45;100252.00;;;5.50
11849;BMP180;5983;49.966;8.052;2024-01-07T04:18:11;100250.00;;;5.50
11849;BMP180;5983;49.966;8.052;2024-01-07T04:20:38;100252.00;;;5.50
11849;BMP180;5983;49.966;8.052;2024-01-07T04:23:05;100247.00;;;5.50
11849;BMP180;5983;49.966;8.052;2024-01-07T04:25:33;100245.00;;;5.50
11849;BMP180;5983;49.966;8.052;2024-01-07T04:28:00;100256.00;;;5.50
11849;BMP180;5983;49.966;8.052;2024-01-07T04:30:26;100259.00;;;5.50
11849;BMP180;5983;49.966;8.052;2024-01-07T04:32:53;100259.00;;;5.50
11849;BMP180;5983;49.966;8.052;2024-01-07T04:35:20;100252.00;;;5.50
11849;BMP180;5983;49.966;8.052;2024-01-07T04:37:46;100264.00;;;5.50
11849;BMP180;5983;49.966;8.052;2024-01-07T04:40:13;100263.00;;;5.50
11849;BMP180;5983;49.966;8.052;2024-01-07T04:42:41;100269.00;;;5.50
11849;BMP180;5983;49.966;8.052;2024-01-07T04:45:08;100277.00;;;5.50
11849;BMP180;5983;49.966;8.052;2024-01-07T04:47:35;100275.00;;;5.40
11849;BMP180;5983;49.966;8.052;2024-01-07T04:50:03;100287.00;;;5.40
11849;BMP180;5983;49.966;8.052;2024-01-07T04:52:30;100286.00;;;5.40
11849;BMP180;5983;49.966;8.052;2024-01-07T04:54:56;100283.00;;;5.40
11849;BMP180;5983;49.966;8.052;2024-01-07T04:57:23;100291.00;;;5.40
11849;BMP180;5983;49.966;8.052;2024-01-07T04:59:51;100282.00;;;5.40
11849;BMP180;5983;49.966;8.052;2024-01-07T05:02:18;100299.00;;;5.40
11849;BMP180;5983;49.966;8.052;2024-01-07T05:04:45;100305.00;;;5.40
11849;BMP180;5983;49.966;8.052;2024-01-07T05:07:11;100309.00;;;5.50
11849;BMP180;5983;49.966;8.052;2024-01-07T05:09:39;100311.00;;;5.50
11849;BMP180;5983;49.966;8.052;2024-01-07T05:12:06;100302.00;;;5.50
11849;BMP180;5983;49.966;8.052;2024-01-07T05:14:33;100318.00;;;5.50
11849;BMP180;5983;49.966;8.052;2024-01-07T05:17:01;100304.00;;;5.40
11849;BMP180;5983;49.966;8.052;2024-01-07T05:19:27;100306.00;;;5.40
11849;BMP180;5983;49.966;8.052;2024-01-07T05:21:54;100312.00;;;5.40
11849;BMP180;5983;49.966;8.052;2024-01-07T05:24:21;100320.00;;;5.50
11849;BMP180;5983;49.966;8.052;2024-01-07T05:26:47;100320.00;;;5.40
11849;BMP180;5983;49.966;8.052;2024-01-07T05:29:14;100314.00;;;5.50
11849;BMP180;5983;49.966;8.052;2024-01-07T05:31:41;100318.00;;;5.40
11849;BMP180;5983;49.966;8.052;2024-01-07T05:34:09;100319.00;;;5.40
11849;BMP180;5983;49.966;8.052;2024-01-07T05:36:36;100316.00;;;5.50
11849;BMP180;5983;49.966;8.052;2024-01-07T05:39:02;100317.00;;;5.40
11849;BMP180;5983;49.966;8.052;2024-01-07T05:41:29;100322.00;;;5.50
11849;BMP180;5983;49.966;8.052;2024-01-07T05:43:56;100316.00;;;5.40
11849;BMP180;5983;49.966;8.052;2024-01-07T05:46:23;100323.00;;;5.40
11849;BMP180;5983;49.966;8.052;2024-01-07T05:48:49;100334.00;;;5.40
11849;BMP180;5983;49.966;8.052;2024-01-07T05:51:18;100335.00;;;5.40
11849;BMP180;5983;49.966;8.052;2024-01-07T05:53:45;100330.00;;;5.40
11849;BMP180;5983;49.966;8.052;2024-01-07T05:56:12;100340.00;;;5.40
11849;BMP180;5983;49.966;8.052;2024-01-07T05:58:38;100337.00;;;5.40
11849;BMP180;5983;49.966;8.052;2024-01-07T06:01:07;100348.00;;;5.40
11849;BMP180;5983;49.966;8.052;2024-01-07T06:03:34;100346.00;;;5.40
11849;BMP180;5983;49.966;8.052;2024-01-07T06:06:01;100352.00;;;5.40
11849;BMP180;5983;49.966;8.052;2024-01-07T06:08:29;100355.00;;;5.40
11849;BMP180;5983;49.966;8.052;2024-01-07T06:10:56;100357.00;;;5.40
11849;BMP180;5983;49.966;8.052;2024-01-07T06:13:23;100362.00;;;5.40
11849;BMP180;5983;49.966;8.052;2024-01-07T06:15:50;100366.00;;;5.40
11849;BMP180;5983;49.966;8.052;2024-01-07T06:18:17;100374.00;;;5.40
11849;BMP180;5983;49.966;8.052;2024-01-07T06:20:43;100369.00;;;5.40
11849;BMP180;5983;49.966;8.052;2024-01-07T06:23:10;100375.00;;;5.40
11849;BMP180;5983;49.966;8.052;2024-01-07T06:25:38;100378.00;;;5.40
11849;BMP180;5983;49.966;8.052;2024-01-07T06:28:06;100367.00;;;5.40
11849;BMP180;5983;49.966;8.052;2024-01-07T06:30:32;100377.00;;;5.40
11849;BMP180;5983;49.966;8.052;2024-01-07T06:32:59;100385.00;;;5.30
11849;BMP180;5983;49.966;8.052;2024-01-07T06:35:26;100386.00;;;5.40
11849;BMP180;5983;49.966;8.052;2024-01-07T06:37:52;100386.00;;;5.40
11849;BMP180;5983;49.966;8.052;2024-01-07T06:40:19;100389.00;;;5.40
11849;BMP180;5983;49.966;8.052;2024-01-07T06:42:47;100390.00;;;5.40
11849;BMP180;5983;49.966;8.052;2024-01-07T06:45:14;100395.00;;;5.40
11849;BMP180;5983;49.966;8.052;2024-01-07T06:47:41;100406.00;;;5.40
11849;BMP180;5983;49.966;8.052;2024-01-07T06:50:09;100405.00;;;5.40
11849;BMP180;5983;49.966;8.052;2024-01-07T06:52:35;100399.00;;;5.40
11849;BMP180;5983;49.966;8.052;2024-01-07T06:55:02;100408.00;;;5.40
11849;BMP180;5983;49.966;8.052;2024-01-07T06:57:29;100414.00;;;5.40
11849;BMP180;5983;49.966;8.052;2024-01-07T06:59:57;100417.00;;;5.30
11849;BMP180;5983;49.966;8.052;2024-01-07T07:02:24;100420.00;;;5.30
11849;BMP180;5983;49.966;8.052;2024-01-07T07:04:50;100419.00;;;5.40
11849;BMP180;5983;49.966;8.052;2024-01-07T07:07:17;100426.00;;;5.40
11849;BMP180;5983;49.966;8.052;2024-01-07T07:09:44;100431.00;;;5.30
11849;BMP180;5983;49.966;8.052;2024-01-07T07:12:12;100429.00;;;5.30
11849;BMP180;5983;49.966;8.052;2024-01-07T07:14:39;100430.00;;;5.40
11849;BMP180;5983;49.966;8.052;2024-01-07T07:17:07;100435.00;;;5.40
11849;BMP180;5983;49.966;8.052;2024-01-07T07:19:33;100444.00;;;5.30
11849;BMP180;5983;49.966;8.052;2024-01-07T07:22:00;100450.00;;;5.30
11849;BMP180;5983;49.966;8.052;2024-01-07T07:24:27;100445.00;;;5.30
11849;BMP180;5983;49.966;8.052;2024-01-07T07:26:53;100453.00;;;5.40
11849;BMP180;5983;49.966;8.052;2024-01-07T07:29:20;100454.00;;;5.30
11849;BMP180;5983;49.966;8.052;2024-01-07T07:31:47;100457.00;;;5.30
11849;BMP180;5983;49.966;8.052;2024-01-07T07:34:15;100471.00;;;5.30
11849;BMP180;5983;49.966;8.052;2024-01-07T07:36:42;100472.00;;;5.30
11849;BMP180;5983;49.966;8.052;2024-01-07T07:39:10;100476.00;;;5.40
11849;BMP180;5983;49.966;8.052;2024-01-07T07:41:37;100476.00;;;5.30
11849;BMP180;5983;49.966;8.052;2024-01-07T07:44:04;100490.00;;;5.30
11849;BMP180;5983;49.966;8.052;2024-01-07T07:46:30;100489.00;;;5.30
11849;BMP180;5983;49.966;8.052;2024-01-07T07:48:57;100495.00;;;5.30
11849;BMP180;5983;49.966;8.052;2024-01-07T07:51:25;100486.00;;;5.20
11849;BMP180;5983;49.966;8.052;2024-01-07T07:53:53;100497.00;;;5.20
11849;BMP180;5983;49.966;8.052;2024-01-07T07:56:19;100499.00;;;5.20
11849;BMP180;5983;49.966;8.052;2024-01-07T07:58:46;100499.00;;;5.20
11849;BMP180;5983;49.966;8.052;2024-01-07T08:01:13;100505.00;;;5.20
11849;BMP180;5983;49.966;8.052;2024-01-07T08:03:39;100509.00;;;5.20
11849;BMP180;5983;49.966;8.052;2024-01-07T08:06:06;100508.00;;;5.30
11849;BMP180;5983;49.966;8.052;2024-01-07T08:08:34;100508.00;;;5.30
11849;BMP180;5983;49.966;8.052;2024-01-07T08:11:01;100507.00;;;5.30
11849;BMP180;5983;49.966;8.052;2024-01-07T08:13:28;100516.00;;;5.30
11849;BMP180;5983;49.966;8.052;2024-01-07T08:15:55;100514.00;;;5.30
11849;BMP180;5983;49.966;8.052;2024-01-07T08:18:21;100512.00;;;5.30
11849;BMP180;5983;49.966;8.052;2024-01-07T08:20:48;100515.00;;;5.30
11849;BMP180;5983;49.966;8.052;2024-01-07T08:23:15;100518.00;;;5.30
11849;BMP180;5983;49.966;8.052;2024-01-07T08:25:43;100526.00;;;5.30
11849;BMP180;5983;49.966;8.052;2024-01-07T08:28:11;100519.00;;;5.30
11849;BMP180;5983;49.966;8.052;2024-01-07T08:30:38;100530.00;;;5.30
11849;BMP180;5983;49.966;8.052;2024-01-07T08:33:04;100527.00;;;5.40
11849;BMP180;5983;49.966;8.052;2024-01-07T08:35:31;100529.00;;;5.40
11849;BMP180;5983;49.966;8.052;2024-01-07T08:37:58;100537.00;;;5.40
11849;BMP180;5983;49.966;8.052;2024-01-07T08:40:25;100526.00;;;5.40
11849;BMP180;5983;49.966;8.052;2024-01-07T08:42:53;100535.00;;;5.40
11849;BMP180;5983;49.966;8.052;2024-01-07T08:45:19;100540.00;;;5.40
11849;BMP180;5983;49.966;8.052;2024-01-07T08:47:46;100534.00;;;5.40
11849;BMP180;5983;49.966;8.052;2024-01-07T08:50:13;100539.00;;;5.40
11849;BMP180;5983;49.966;8.052;2024-01-07T08:52:40;100539.00;;;5.40
11849;BMP180;5983;49.966;8.052;2024-01-07T08:55:07;100547.00;;;5.50
11849;BMP180;5983;49.966;8.052;2024-01-07T08:57:36;100549.00;;;5.50
11849;BMP180;5983;49.966;8.052;2024-01-07T09:00:06;100556.00;;;5.60
11849;BMP180;5983;49.966;8.052;2024-01-07T09:02:34;100557.00;;;5.60
11849;BMP180;5983;49.966;8.052;2024-01-07T09:05:01;100564.00;;;5.70
11849;BMP180;5983;49.966;8.052;2024-01-07T09:07:28;100566.00;;;5.80
11849;BMP180;5983;49.966;8.052;2024-01-07T09:09:54;100567.00;;;5.80
11849;BMP180;5983;49.966;8.052;2024-01-07T09:12:24;100577.00;;;5.90
11849;BMP180;5983;49.966;8.052;2024-01-07T09:14:51;100573.00;;;5.90
11849;BMP180;5983;49.966;8.052;2024-01-07T09:17:20;100578.00;;;6.00
11849;BMP180;5983;49.966;8.052;2024-01-07T09:19:48;100577.00;;;6.00
11849;BMP180;5983;49.966;8.052;2024-01-07T09:22:14;100587.00;;;6.00
11849;BMP180;5983;49.966;8.052;2024-01-07T09:24:41;100595.00;;;6.00
11849;BMP180;5983;49.966;8.052;2024-01-07T09:27:08;100586.00;;;6.00
11849;BMP180;5983;49.966;8.052;2024-01-07T09:29:35;100594.00;;;6.00
11849;BMP180;5983;49.966;8.052;2024-01-07T09:32:02;100603.00;;;6.00
11849;BMP180;5983;49.966;8.052;2024-01-07T09:34:30;100608.00;;;6.00
11849;BMP180;5983;49.966;8.052;2024-01-07T09:36:56;100600.00;;;6.00
11849;BMP180;5983;49.966;8.052;2024-01-07T09:39:23;100614.00;;;5.90
11849;BMP180;5983;49.966;8.052;2024-01-07T09:41:51;100615.00;;;5.90
11849;BMP180;5983;49.966;8.052;2024-01-07T09:44:18;100619.00;;;5.90
11849;BMP180;5983;49.966;8.052;2024-01-07T09:46:46;100618.00;;;5.80
11849;BMP180;5983;49.966;8.052;2024-01-07T09:49:17;100621.00;;;5.80
11849;BMP180;5983;49.966;8.052;2024-01-07T09:51:45;100622.00;;;5.80
11849;BMP180;5983;49.966;8.052;2024-01-07T09:54:14;100629.00;;;5.80
11849;BMP180;5983;49.966;8.052;2024-01-07T09:56:50;100626.00;;;5.80
11849;BMP180;5983;49.966;8.052;2024-01-07T09:59:17;100635.00;;;5.80
11849;BMP180;5983;49.966;8.052;2024-01-07T10:01:45;100635.00;;;5.70
11849;BMP180;5983;49.966;8.052;2024-01-07T10:04:12;100639.00;;;5.70
11849;BMP180;5983;49.966;8.052;2024-01-07T10:06:39;100644.00;;;5.60
11849;BMP180;5983;49.966;8.052;2024-01-07T10:09:07;100638.00;;;5.60
11849;BMP180;5983;49.966;8.052;2024-01-07T10:11:34;100641.00;;;5.60
11849;BMP180;5983;49.966;8.052;2024-01-07T10:14:01;100642.00;;;5.60
11849;BMP180;5983;49.966;8.052;2024-01-07T10:16:28;100655.00;;;5.60
11849;BMP180;5983;49.966;8.052;2024-01-07T10:18:55;100661.00;;;5.60
11849;BMP180;5983;49.966;8.052;2024-01-07T10:21:22;100663.00;;;5.50
11849;BMP180;5983;49.966;8.052;2024-01-07T10:23:50;100655.00;;;5.50
11849;BMP180;5983;49.966;8.052;2024-01-07T10:26:19;100655.00;;;5.50
11849;BMP180;5983;49.966;8.052;2024-01-07T10:28:46;100658.00;;;5.50
11849;BMP180;5983;49.966;8.052;2024-01-07T10:31:13;100650.00;;;5.50
11849;BMP180;5983;49.966;8.052;2024-01-07T10:33:40;100654.00;;;5.40
11849;BMP180;5983;49.966;8.052;2024-01-07T10:36:07;100657.00;;;5.50
11849;BMP180;5983;49.966;8.052;2024-01-07T10:38:35;100659.00;;;5.40
11849;BMP180;5983;49.966;8.052;2024-01-07T10:41:02;100668.00;;;5.40
11849;BMP180;5983;49.966;8.052;2024-01-07T10:43:34;100660.00;;;5.30
11849;BMP180;5983;49.966;8.052;2024-01-07T10:46:03;100661.00;;;5.30
11849;BMP180;5983;49.966;8.052;2024-01-07T10:48:31;100665.00;;;5.20
11849;BMP180;5983;49.966;8.052;2024-01-07T10:51:01;100673.00;;;5.10
11849;BMP180;5983;49.966;8.052;2024-01-07T10:53:32;100664.00;;;5.10
11849;BMP180;5983;49.966;8.052;2024-01-07T10:56:02;100671.00;;;5.00
11849;BMP180;5983;49.966;8.052;2024-01-07T10:58:32;100672.00;;;5.10
11849;BMP180;5983;49.966;8.052;2024-01-07T11:00:59;100674.00;;;5.00
11849;BMP180;5983;49.966;8.052;2024-01-07T11:03:35;100677.00;;;5.00
11849;BMP180;5983;49.966;8.052;2024-01-07T11:06:08;100671.00;;;4.90
11849;BMP180;5983;49.966;8.052;2024-01-07T11:08:43;100681.00;;;4.90
11849;BMP180;5983;49.966;8.052;2024-01-07T11:11:15;100681.00;;;4.90
11849;BMP180;5983;49.966;8.052;2024-01-07T11:13:44;100673.00;;;4.90
11849;BMP180;5983;49.966;8.052;2024-01-07T11:16:10;100676.00;;;4.90
11849;BMP180;5983;49.966;8.052;2024-01-07T11:18:45;100668.00;;;4.90
11849;BMP180;5983;49.966;8.052;2024-01-07T11:21:21;100667.00;;;5.00
11849;BMP180;5983;49.966;8.052;2024-01-07T11:23:50;100679.00;;;5.00
11849;BMP180;5983;49.966;8.052;2024-01-07T11:26:19;100672.00;;;5.00
11849;BMP180;5983;49.966;8.052;2024-01-07T11:28:50;100670.00;;;5.00
11849;BMP180;5983;49.966;8.052;2024-01-07T11:31:19;100675.00;;;5.00
11849;BMP180;5983;49.966;8.052;2024-01-07T11:33:47;100676.00;;;5.00
11849;BMP180;5983;49.966;8.052;2024-01-07T11:36:15;100693.00;;;5.00
11849;BMP180;5983;49.966;8.052;2024-01-07T11:38:42;100686.00;;;5.00
11849;BMP180;5983;49.966;8.052;2024-01-07T11:41:11;100691.00;;;5.00
11849;BMP180;5983;49.966;8.052;2024-01-07T11:43:39;100690.00;;;5.00
11849;BMP180;5983;49.966;8.052;2024-01-07T11:46:19;100691.00;;;5.00
11849;BMP180;5983;49.966;8.052;2024-01-07T11:48:46;100686.00;;;5.00
11849;BMP180;5983;49.966;8.052;2024-01-07T11:51:13;100688.00;;;5.00
11849;BMP180;5983;49.966;8.052;2024-01-07T11:53:39;100698.00;;;4.90
11849;BMP180;5983;49.966;8.052;2024-01-07T11:56:08;100698.00;;;4.90
11849;BMP180;5983;49.966;8.052;2024-01-07T11:58:35;100701.00;;;4.80
11849;BMP180;5983;49.966;8.052;2024-01-07T12:01:02;100698.00;;;4.80
11849;BMP180;5983;49.966;8.052;2024-01-07T12:03:30;100697.00;;;4.70
11849;BMP180;5983;49.966;8.052;2024-01-07T12:05:56;100702.00;;;4.70
11849;BMP180;5983;49.966;8.052;2024-01-07T12:08:23;100707.00;;;4.60
11849;BMP180;5983;49.966;8.052;2024-01-07T12:10:50;100704.00;;;4.60
11849;BMP180;5983;49.966;8.052;2024-01-07T12:13:17;100706.00;;;4.60
11849;BMP180;5983;49.966;8.052;2024-01-07T12:15:45;100706.00;;;4.60
11849;BMP180;5983;49.966;8.052;2024-01-07T12:18:13;100703.00;;;4.60
11849;BMP180;5983;49.966;8.052;2024-01-07T12:20:53;100706.00;;;4.60
11849;BMP180;5983;49.966;8.052;2024-01-07T12:23:20;100711.00;;;4.70
11849;BMP180;5983;49.966;8.052;2024-01-07T12:25:48;100698.00;;;4.70
11849;BMP180;5983;49.966;8.052;2024-01-07T12:28:17;100707.00;;;4.80
11849;BMP180;5983;49.966;8.052;2024-01-07T12:30:44;100701.00;;;4.80
11849;BMP180;5983;49.966;8.052;2024-01-07T12:33:10;100709.00;;;4.90
11849;BMP180;5983;49.966;8.052;2024-01-07T12:35:37;100712.00;;;5.00
11849;BMP180;5983;49.966;8.052;2024-01-07T12:38:06;100700.00;;;5.00
11849;BMP180;5983;49.966;8.052;2024-01-07T12:40:33;100707.00;;;4.90
11849;BMP180;5983;49.966;8.052;2024-01-07T12:43:00;100704.00;;;4.80
11849;BMP180;5983;49.966;8.052;2024-01-07T12:45:27;100707.00;;;4.80
11849;BMP180;5983;49.966;8.052;2024-01-07T12:47:54;100713.00;;;4.80
11849;BMP180;5983;49.966;8.052;2024-01-07T12:50:24;100716.00;;;4.80
11849;BMP180;5983;49.966;8.052;2024-01-07T12:52:53;100722.00;;;4.70
11849;BMP180;5983;49.966;8.052;2024-01-07T12:55:22;100726.00;;;4.70
11849;BMP180;5983;49.966;8.052;2024-01-07T12:57:48;100726.00;;;4.70
11849;BMP180;5983;49.966;8.052;2024-01-07T13:00:16;100728.00;;;4.70
11849;BMP180;5983;49.966;8.052;2024-01-07T13:02:42;100737.00;;;4.70
11849;BMP180;5983;49.966;8.052;2024-01-07T13:05:09;100732.00;;;4.60
11849;BMP180;5983;49.966;8.052;2024-01-07T13:07:36;100745.00;;;4.60
11849;BMP180;5983;49.966;8.052;2024-01-07T13:10:03;100740.00;;;4.50
11849;BMP180;5983;49.966;8.052;2024-01-07T13:12:31;100738.00;;;4.50
11849;BMP180;5983;49.966;8.052;2024-01-07T13:14:58;100747.00;;;4.50
11849;BMP180;5983;49.966;8.052;2024-01-07T13:17:25;100750.00;;;4.40
11849;BMP180;5983;49.966;8.052;2024-01-07T13:19:51;100759.00;;;4.40
11849;BMP180;5983;49.966;8.052;2024-01-07T13:22:18;100753.00;;;4.40
11849;BMP180;5983;49.966;8.052;2024-01-07T13:24:45;100757.00;;;4.40
11849;BMP180;5983;49.966;8.052;2024-01-07T13:27:12;100765.00;;;4.30
11849;BMP180;5983;49.966;8.052;2024-01-07T13:29:40;100772.00;;;4.30
11849;BMP180;5983;49.966;8.052;2024-01-07T13:32:07;100768.00;;;4.30
11849;BMP180;5983;49.966;8.052;2024-01-07T13:34:34;100773.00;;;4.30
11849;BMP180;5983;49.966;8.052;2024-01-07T13:37:00;100768.00;;;4.30
11849;BMP180;5983;49.966;8.052;2024-01-07T13:39:29;100764.00;;;4.30
11849;BMP180;5983;49.966;8.052;2024-01-07T13:41:56;100773.00;;;4.30
11849;BMP180;5983;49.966;8.052;2024-01-07T13:44:23;100772.00;;;4.30
11849;BMP180;5983;49.966;8.052;2024-01-07T13:46:51;100773.00;;;4.30
11849;BMP180;5983;49.966;8.052;2024-01-07T13:49:19;100767.00;;;4.30
11849;BMP180;5983;49.966;8.052;2024-01-07T13:51:45;100779.00;;;4.20
11849;BMP180;5983;49.966;8.052;2024-01-07T13:54:12;100785.00;;;4.20
11849;BMP180;5983;49.966;8.052;2024-01-07T13:56:40;100786.00;;;4.20
11849;BMP180;5983;49.966;8.052;2024-01-07T13:59:08;100793.00;;;4.20
11849;BMP180;5983;49.966;8.052;2024-01-07T14:01:34;100789.00;;;4.30
11849;BMP180;5983;49.966;8.052;2024-01-07T14:04:03;100800.00;;;4.30
11849;BMP180;5983;49.966;8.052;2024-01-07T14:06:30;100800.00;;;4.20
11849;BMP180;5983;49.966;8.052;2024-01-07T14:08:57;100805.00;;;4.10
11849;BMP180;5983;49.966;8.052;2024-01-07T14:11:24;100804.00;;;4.10
11849;BMP180;5983;49.966;8.052;2024-01-07T14:13:52;100807.00;;;4.10
11849;BMP180;5983;49.966;8.052;2024-01-07T14:16:19;100816.00;;;4.10
11849;BMP180;5983;49.966;8.052;2024-01-07T14:18:45;100824.00;;;4.10
11849;BMP180;5983;49.966;8.052;2024-01-07T14:21:14;100825.00;;;4.10